Yeager Airport Charleston US
ICAO: KCRW
IATA: CRW
Category: Large
Scheduled Services: Yes

Elevation: 981 ft
TransAlt. 18000 ft.

Airport Communications:
CHARLESTON APP/DEP:128.5
ATIS:127.6
CLNC DEL:118.55
GND:121.8
ANG COMD POST/OPS:30.23
ELKINS RDO:122.2
CHARLESTON TWR:125.7
UNICOM:122.95

KCRW Zoom In..

Runways:

(A) RW 05 length 6802 ft width 150 ft
ILS 110.30 / hdg 53

(B) RW 23 length 6802 ft width 150 ft
ILS 110.30 / hdg 233

Location; KCRW
Day. 20 / Time. 19.54 Zulu
* Altimeter: 29.96
* Temperature: 22° c. 71.6°f.
* Wind from: 130° Speed 07 kn.
Dewpoint: 21° c.
Visibility: 10 Statute Miles.
Clouds: Few 100 ft.
Clouds: Broken 5000 ft.
Clouds: Broken 11000 ft.
Conditions: Cumulonimbus.Conditions: Thunderstorm.Conditions: Fog.

KCRW 201954Z 13007KT 10SM FEW001 BKN050 BKN110 22/21 A2996 RMK AO2 LTG DSNT E-S RAE16 TSE17 SLP137 OCNL LTG DSNT E-S CB DSNT E-S TS MOVD NE VLY FG P0002 T02220206


Wind From 130°
Speed 07 kn.

 
 
jpsmedia.com for Web Design worldairports.se 2018   terms of use